Bremerton, WA

9:56 AM PST on January 29, 2015 (GMT -0800)
Seattle-Tacoma International | Change Station
CLOSE
Current Station
Airport
Location: Seattle,
Elevation: 433 ft
Nearby Weather Stations

Elev 433 ft 47.44 °N, 122.31 °W | Updated 1 hour ago

Partly Cloudy
Partly Cloudy
43 °F
Feels Like 37 °F
N
10
Wind Variable Wind from NNE

Today
High -- | Low -- °F
--% Chance of Precip.
Yesterday
High -- | Low -- °F
Precip. -- in
7:40 AM 5:06 PM
Waxing Gibbous, 76% visible
Pressure 30.38 in
Visibility 10.0 miles
Clouds Few 4000 ft
Scattered Clouds 15000 ft
Windchill 37 °F
Dew Point 38 °F
Humidity 82%
Rainfall 0.00 in
Snow Depth Not available.
UV 0 out of 12
Pollen 5.10 out of 12
Air Quality Not available.
Flu Activity Not available.
METAR KSEA 291653Z 02009KT 10SM FEW040 SCT150 06/03 A3035 RMK AO2 SLP285 T00610033

More Conditions Fewer Conditions

Pressure 30.38 in
Visibility 10.0 miles
Clouds Few 4000 ft
Scattered Clouds 15000 ft
Windchill 37 °F
Dew Point 38 °F
Humidity 82%
Rainfall 0.00 in
Snow Depth Not available.
UV 0 out of 12
Pollen 5.10 out of 12
Air Quality Not available.
Flu Activity Not available.
METAR KSEA 291653Z 02009KT 10SM FEW040 SCT150 06/03 A3035 RMK AO2 SLP285 T00610033

More Conditions Fewer Conditions

10-Day Weather Forecast

Almanac

Astronomy

Jan. 29, 2015 Rise Set
Actual Time
Civil Twilight
Nautical Twilight
Astronomical Twilight
Moon
Length of Visible Light
Length of Day
Tomorrow will be .
, % of the Moon is Illuminated

Today's Extremes

State Highs State Lows

Community

WunderPhotos

Upload Photos

1,791,501 photos uploaded!

WunderBlogs® & News

Nearby

Air Quality

  Air Quality AQ Index Pollutant
Not available.

Snow Depth

Station Depth Elevation

Earthquake Activity

City Distance Mag. Time & Date
Minimum magnitude displayed is 2.5.

Coastal Water Temperatures

Place Temperature

Nearby Weather Stations